sensor_id;sensor_type;location;lat;lon;timestamp;P1;durP1;ratioP1;P2;durP2;ratioP2
42084;SDS011;27746;52.228;20.890;2022-07-01T00:01:27;13.07;;;6.88;;
42084;SDS011;27746;52.228;20.890;2022-07-01T00:03:54;12.38;;;7.70;;
42084;SDS011;27746;52.228;20.890;2022-07-01T00:06:21;12.48;;;7.38;;
42084;SDS011;27746;52.228;20.890;2022-07-01T00:08:48;11.63;;;7.00;;
42084;SDS011;27746;52.228;20.890;2022-07-01T00:11:15;16.65;;;8.15;;
42084;SDS011;27746;52.228;20.890;2022-07-01T00:13:43;13.45;;;7.80;;
42084;SDS011;27746;52.228;20.890;2022-07-01T00:16:10;18.10;;;8.40;;
42084;SDS011;27746;52.228;20.890;2022-07-01T00:18:37;11.32;;;7.82;;
42084;SDS011;27746;52.228;20.890;2022-07-01T00:21:04;14.70;;;7.63;;
42084;SDS011;27746;52.228;20.890;2022-07-01T00:23:31;13.93;;;8.27;;
42084;SDS011;27746;52.228;20.890;2022-07-01T00:25:58;13.75;;;7.57;;
42084;SDS011;27746;52.228;20.890;2022-07-01T00:28:25;14.10;;;7.60;;
42084;SDS011;27746;52.228;20.890;2022-07-01T00:30:53;14.05;;;8.77;;
42084;SDS011;27746;52.228;20.890;2022-07-01T00:33:19;15.63;;;8.48;;
42084;SDS011;27746;52.228;20.890;2022-07-01T00:35:46;14.20;;;8.13;;
42084;SDS011;27746;52.228;20.890;2022-07-01T00:38:13;12.10;;;8.57;;
42084;SDS011;27746;52.228;20.890;2022-07-01T00:40:40;13.65;;;10.00;;
42084;SDS011;27746;52.228;20.890;2022-07-01T00:43:06;16.95;;;9.55;;
42084;SDS011;27746;52.228;20.890;2022-07-01T00:45:33;14.55;;;8.55;;
42084;SDS011;27746;52.228;20.890;2022-07-01T00:48:02;11.48;;;8.27;;
42084;SDS011;27746;52.228;20.890;2022-07-01T00:50:29;15.50;;;9.82;;
42084;SDS011;27746;52.228;20.890;2022-07-01T00:52:55;14.57;;;8.57;;
42084;SDS011;27746;52.228;20.890;2022-07-01T00:55:22;19.27;;;10.30;;
42084;SDS011;27746;52.228;20.890;2022-07-01T00:57:49;14.98;;;9.55;;
42084;SDS011;27746;52.228;20.890;2022-07-01T01:00:17;16.90;;;10.07;;
42084;SDS011;27746;52.228;20.890;2022-07-01T01:02:46;14.82;;;9.90;;
42084;SDS011;27746;52.228;20.890;2022-07-01T01:05:14;15.00;;;9.10;;
42084;SDS011;27746;52.228;20.890;2022-07-01T01:07:43;14.13;;;9.18;;
42084;SDS011;27746;52.228;20.890;2022-07-01T01:10:10;13.88;;;9.57;;
42084;SDS011;27746;52.228;20.890;2022-07-01T01:12:38;14.52;;;9.25;;
42084;SDS011;27746;52.228;20.890;2022-07-01T01:15:06;15.50;;;9.32;;
42084;SDS011;27746;52.228;20.890;2022-07-01T01:17:33;17.02;;;8.65;;
42084;SDS011;27746;52.228;20.890;2022-07-01T01:20:00;15.40;;;9.15;;
42084;SDS011;27746;52.228;20.890;2022-07-01T01:22:28;14.27;;;9.13;;
42084;SDS011;27746;52.228;20.890;2022-07-01T01:24:55;12.23;;;8.50;;
42084;SDS011;27746;52.228;20.890;2022-07-01T01:27:24;14.10;;;8.15;;
42084;SDS011;27746;52.228;20.890;2022-07-01T01:29:50;14.45;;;8.30;;
42084;SDS011;27746;52.228;20.890;2022-07-01T01:32:17;12.63;;;7.80;;
42084;SDS011;27746;52.228;20.890;2022-07-01T01:34:44;13.38;;;8.40;;
42084;SDS011;27746;52.228;20.890;2022-07-01T01:37:11;11.50;;;8.88;;
42084;SDS011;27746;52.228;20.890;2022-07-01T01:39:39;14.43;;;8.60;;
42084;SDS011;27746;52.228;20.890;2022-07-01T01:42:06;11.85;;;7.80;;
42084;SDS011;27746;52.228;20.890;2022-07-01T01:44:33;13.43;;;8.15;;
42084;SDS011;27746;52.228;20.890;2022-07-01T01:47:00;12.20;;;8.23;;
42084;SDS011;27746;52.228;20.890;2022-07-01T01:49:27;14.38;;;8.55;;
42084;SDS011;27746;52.228;20.890;2022-07-01T01:51:54;13.05;;;8.55;;
42084;SDS011;27746;52.228;20.890;2022-07-01T01:54:22;16.17;;;9.13;;
42084;SDS011;27746;52.228;20.890;2022-07-01T01:56:51;12.25;;;8.40;;
42084;SDS011;27746;52.228;20.890;2022-07-01T01:59:18;12.65;;;7.97;;
42084;SDS011;27746;52.228;20.890;2022-07-01T02:01:44;12.38;;;8.50;;
42084;SDS011;27746;52.228;20.890;2022-07-01T02:04:11;13.18;;;8.23;;
42084;SDS011;27746;52.228;20.890;2022-07-01T02:06:38;28.17;;;9.80;;
42084;SDS011;27746;52.228;20.890;2022-07-01T02:09:06;14.68;;;8.88;;
42084;SDS011;27746;52.228;20.890;2022-07-01T02:11:33;12.90;;;8.25;;
42084;SDS011;27746;52.228;20.890;2022-07-01T02:14:01;13.15;;;8.40;;
42084;SDS011;27746;52.228;20.890;2022-07-01T02:16:28;11.38;;;8.82;;
42084;SDS011;27746;52.228;20.890;2022-07-01T02:18:55;14.02;;;8.52;;
42084;SDS011;27746;52.228;20.890;2022-07-01T02:21:22;13.63;;;8.30;;
42084;SDS011;27746;52.228;20.890;2022-07-01T02:23:49;16.27;;;11.05;;
42084;SDS011;27746;52.228;20.890;2022-07-01T02:26:17;14.93;;;10.55;;
42084;SDS011;27746;52.228;20.890;2022-07-01T02:28:44;16.17;;;9.60;;
42084;SDS011;27746;52.228;20.890;2022-07-01T02:31:14;13.00;;;8.63;;
42084;SDS011;27746;52.228;20.890;2022-07-01T02:33:40;12.38;;;8.65;;
42084;SDS011;27746;52.228;20.890;2022-07-01T02:36:07;14.55;;;8.85;;
42084;SDS011;27746;52.228;20.890;2022-07-01T02:38:34;11.82;;;8.90;;
42084;SDS011;27746;52.228;20.890;2022-07-01T02:41:01;14.18;;;9.40;;
42084;SDS011;27746;52.228;20.890;2022-07-01T02:43:27;14.38;;;9.48;;
42084;SDS011;27746;52.228;20.890;2022-07-01T02:45:55;14.70;;;8.68;;
42084;SDS011;27746;52.228;20.890;2022-07-01T02:48:23;12.88;;;9.10;;
42084;SDS011;27746;52.228;20.890;2022-07-01T02:50:50;13.75;;;9.32;;
42084;SDS011;27746;52.228;20.890;2022-07-01T02:53:17;17.17;;;8.88;;
42084;SDS011;27746;52.228;20.890;2022-07-01T02:55:44;13.52;;;9.05;;
42084;SDS011;27746;52.228;20.890;2022-07-01T02:58:10;14.55;;;8.48;;
42084;SDS011;27746;52.228;20.890;2022-07-01T03:00:37;12.38;;;8.50;;
42084;SDS011;27746;52.228;20.890;2022-07-01T03:03:04;16.98;;;9.00;;
42084;SDS011;27746;52.228;20.890;2022-07-01T03:05:33;13.02;;;8.45;;
42084;SDS011;27746;52.228;20.890;2022-07-01T03:08:00;15.35;;;8.07;;
42084;SDS011;27746;52.228;20.890;2022-07-01T03:10:27;11.65;;;8.48;;
42084;SDS011;27746;52.228;20.890;2022-07-01T03:12:53;14.23;;;8.18;;
42084;SDS011;27746;52.228;20.890;2022-07-01T03:15:20;13.57;;;8.45;;
42084;SDS011;27746;52.228;20.890;2022-07-01T03:17:47;13.85;;;8.40;;
42084;SDS011;27746;52.228;20.890;2022-07-01T03:20:16;15.77;;;8.20;;
42084;SDS011;27746;52.228;20.890;2022-07-01T03:22:45;13.80;;;8.43;;
42084;SDS011;27746;52.228;20.890;2022-07-01T03:25:12;13.18;;;7.50;;
42084;SDS011;27746;52.228;20.890;2022-07-01T03:27:39;11.82;;;8.50;;
42084;SDS011;27746;52.228;20.890;2022-07-01T03:30:10;14.23;;;8.63;;
42084;SDS011;27746;52.228;20.890;2022-07-01T03:32:39;12.43;;;8.20;;
42084;SDS011;27746;52.228;20.890;2022-07-01T03:35:06;14.00;;;8.77;;
42084;SDS011;27746;52.228;20.890;2022-07-01T03:37:49;14.15;;;8.85;;
42084;SDS011;27746;52.228;20.890;2022-07-01T03:40:15;12.73;;;8.32;;
42084;SDS011;27746;52.228;20.890;2022-07-01T03:42:43;12.00;;;9.10;;
42084;SDS011;27746;52.228;20.890;2022-07-01T03:45:10;14.48;;;8.68;;
42084;SDS011;27746;52.228;20.890;2022-07-01T03:47:37;20.15;;;9.18;;
42084;SDS011;27746;52.228;20.890;2022-07-01T03:50:04;17.05;;;9.15;;
42084;SDS011;27746;52.228;20.890;2022-07-01T03:52:32;18.20;;;9.80;;
42084;SDS011;27746;52.228;20.890;2022-07-01T03:55:00;15.13;;;9.75;;
42084;SDS011;27746;52.228;20.890;2022-07-01T03:57:26;21.25;;;9.68;;
42084;SDS011;27746;52.228;20.890;2022-07-01T03:59:52;14.82;;;9.75;;
42084;SDS011;27746;52.228;20.890;2022-07-01T04:02:19;14.05;;;9.40;;
42084;SDS011;27746;52.228;20.890;2022-07-01T04:04:46;16.77;;;9.57;;
42084;SDS011;27746;52.228;20.890;2022-07-01T04:07:12;13.65;;;9.18;;
42084;SDS011;27746;52.228;20.890;2022-07-01T04:09:39;16.52;;;10.57;;
42084;SDS011;27746;52.228;20.890;2022-07-01T04:12:08;19.35;;;10.43;;
42084;SDS011;27746;52.228;20.890;2022-07-01T04:14:37;15.00;;;10.25;;
42084;SDS011;27746;52.228;20.890;2022-07-01T04:17:04;18.02;;;9.93;;
42084;SDS011;27746;52.228;20.890;2022-07-01T04:19:31;15.55;;;9.45;;
42084;SDS011;27746;52.228;20.890;2022-07-01T04:21:58;17.48;;;10.90;;
42084;SDS011;27746;52.228;20.890;2022-07-01T04:24:42;20.88;;;11.07;;
42084;SDS011;27746;52.228;20.890;2022-07-01T04:27:10;16.05;;;10.30;;
42084;SDS011;27746;52.228;20.890;2022-07-01T04:29:37;15.43;;;10.20;;
42084;SDS011;27746;52.228;20.890;2022-07-01T04:32:05;14.18;;;10.35;;
42084;SDS011;27746;52.228;20.890;2022-07-01T04:34:32;14.75;;;10.45;;
42084;SDS011;27746;52.228;20.890;2022-07-01T04:36:59;19.92;;;13.07;;
42084;SDS011;27746;52.228;20.890;2022-07-01T04:39:25;15.35;;;11.32;;
42084;SDS011;27746;52.228;20.890;2022-07-01T04:41:52;16.20;;;11.50;;
42084;SDS011;27746;52.228;20.890;2022-07-01T04:44:26;15.38;;;11.15;;
42084;SDS011;27746;52.228;20.890;2022-07-01T04:46:53;19.58;;;12.30;;
42084;SDS011;27746;52.228;20.890;2022-07-01T04:49:20;15.13;;;12.25;;
42084;SDS011;27746;52.228;20.890;2022-07-01T04:51:47;15.20;;;12.15;;
42084;SDS011;27746;52.228;20.890;2022-07-01T04:54:13;19.75;;;12.50;;
42084;SDS011;27746;52.228;20.890;2022-07-01T04:56:40;13.65;;;11.63;;
42084;SDS011;27746;52.228;20.890;2022-07-01T04:59:07;14.40;;;12.10;;
42084;SDS011;27746;52.228;20.890;2022-07-01T05:01:35;18.63;;;12.18;;
42084;SDS011;27746;52.228;20.890;2022-07-01T05:04:02;20.85;;;13.32;;
42084;SDS011;27746;52.228;20.890;2022-07-01T05:06:32;21.42;;;14.27;;
42084;SDS011;27746;52.228;20.890;2022-07-01T05:08:59;15.88;;;13.18;;
42084;SDS011;27746;52.228;20.890;2022-07-01T05:11:26;17.17;;;12.27;;
42084;SDS011;27746;52.228;20.890;2022-07-01T05:13:53;16.45;;;13.35;;
42084;SDS011;27746;52.228;20.890;2022-07-01T05:16:20;19.58;;;13.50;;
42084;SDS011;27746;52.228;20.890;2022-07-01T05:18:48;19.08;;;12.55;;
42084;SDS011;27746;52.228;20.890;2022-07-01T05:21:32;16.38;;;14.18;;
42084;SDS011;27746;52.228;20.890;2022-07-01T05:24:17;17.35;;;13.00;;
42084;SDS011;27746;52.228;20.890;2022-07-01T05:26:44;17.23;;;13.18;;
42084;SDS011;27746;52.228;20.890;2022-07-01T05:29:11;17.35;;;12.57;;
42084;SDS011;27746;52.228;20.890;2022-07-01T05:31:38;15.75;;;13.27;;
42084;SDS011;27746;52.228;20.890;2022-07-01T05:34:06;23.02;;;14.02;;
42084;SDS011;27746;52.228;20.890;2022-07-01T05:36:33;20.63;;;14.55;;
42084;SDS011;27746;52.228;20.890;2022-07-01T05:39:00;21.15;;;13.32;;
42084;SDS011;27746;52.228;20.890;2022-07-01T05:41:27;21.80;;;13.63;;
42084;SDS011;27746;52.228;20.890;2022-07-01T05:43:54;19.52;;;14.25;;
42084;SDS011;27746;52.228;20.890;2022-07-01T05:46:21;18.48;;;13.80;;
42084;SDS011;27746;52.228;20.890;2022-07-01T05:48:48;22.30;;;13.93;;
42084;SDS011;27746;52.228;20.890;2022-07-01T05:51:16;22.35;;;12.93;;
42084;SDS011;27746;52.228;20.890;2022-07-01T05:53:43;17.08;;;13.75;;
42084;SDS011;27746;52.228;20.890;2022-07-01T05:56:12;19.52;;;14.30;;
42084;SDS011;27746;52.228;20.890;2022-07-01T05:58:39;16.77;;;14.10;;
42084;SDS011;27746;52.228;20.890;2022-07-01T06:01:06;19.10;;;13.68;;
42084;SDS011;27746;52.228;20.890;2022-07-01T06:03:32;16.80;;;13.20;;
42084;SDS011;27746;52.228;20.890;2022-07-01T06:05:59;16.83;;;13.60;;
42084;SDS011;27746;52.228;20.890;2022-07-01T06:08:27;20.15;;;12.90;;
42084;SDS011;27746;52.228;20.890;2022-07-01T06:10:54;20.00;;;14.15;;
42084;SDS011;27746;52.228;20.890;2022-07-01T06:13:21;16.42;;;13.52;;
42084;SDS011;27746;52.228;20.890;2022-07-01T06:15:48;19.05;;;13.27;;
42084;SDS011;27746;52.228;20.890;2022-07-01T06:18:14;15.73;;;13.10;;
42084;SDS011;27746;52.228;20.890;2022-07-01T06:20:41;25.65;;;13.15;;
42084;SDS011;27746;52.228;20.890;2022-07-01T06:23:08;17.52;;;13.88;;
42084;SDS011;27746;52.228;20.890;2022-07-01T06:25:36;18.30;;;13.57;;
42084;SDS011;27746;52.228;20.890;2022-07-01T06:28:03;17.63;;;13.02;;
42084;SDS011;27746;52.228;20.890;2022-07-01T06:30:30;17.50;;;12.25;;
42084;SDS011;27746;52.228;20.890;2022-07-01T06:32:56;18.00;;;12.75;;
42084;SDS011;27746;52.228;20.890;2022-07-01T06:35:23;19.08;;;12.43;;
42084;SDS011;27746;52.228;20.890;2022-07-01T06:37:50;17.23;;;12.82;;
42084;SDS011;27746;52.228;20.890;2022-07-01T06:40:17;16.20;;;12.93;;
42084;SDS011;27746;52.228;20.890;2022-07-01T06:42:45;17.67;;;13.15;;
42084;SDS011;27746;52.228;20.890;2022-07-01T06:45:12;25.58;;;13.68;;
42084;SDS011;27746;52.228;20.890;2022-07-01T06:47:39;19.63;;;12.57;;
42084;SDS011;27746;52.228;20.890;2022-07-01T06:50:06;16.33;;;12.55;;
42084;SDS011;27746;52.228;20.890;2022-07-01T06:52:33;17.67;;;12.27;;
42084;SDS011;27746;52.228;20.890;2022-07-01T06:55:00;16.27;;;12.45;;
42084;SDS011;27746;52.228;20.890;2022-07-01T06:57:27;14.50;;;12.93;;
42084;SDS011;27746;52.228;20.890;2022-07-01T06:59:55;18.55;;;13.13;;
42084;SDS011;27746;52.228;20.890;2022-07-01T07:02:22;22.33;;;12.05;;
42084;SDS011;27746;52.228;20.890;2022-07-01T07:04:49;21.40;;;12.65;;
42084;SDS011;27746;52.228;20.890;2022-07-01T07:07:19;28.08;;;13.52;;
42084;SDS011;27746;52.228;20.890;2022-07-01T07:09:46;20.48;;;12.90;;
42084;SDS011;27746;52.228;20.890;2022-07-01T07:12:12;19.83;;;13.63;;
42084;SDS011;27746;52.228;20.890;2022-07-01T07:14:39;18.67;;;12.13;;
42084;SDS011;27746;52.228;20.890;2022-07-01T07:17:07;21.75;;;13.40;;
42084;SDS011;27746;52.228;20.890;2022-07-01T07:19:35;23.42;;;12.63;;
42084;SDS011;27746;52.228;20.890;2022-07-01T07:22:02;18.70;;;11.82;;
42084;SDS011;27746;52.228;20.890;2022-07-01T07:24:29;22.17;;;12.73;;
42084;SDS011;27746;52.228;20.890;2022-07-01T07:26:56;22.50;;;12.18;;
42084;SDS011;27746;52.228;20.890;2022-07-01T07:29:22;18.35;;;13.30;;
42084;SDS011;27746;52.228;20.890;2022-07-01T07:31:49;19.25;;;13.15;;
42084;SDS011;27746;52.228;20.890;2022-07-01T07:34:18;19.67;;;13.20;;
42084;SDS011;27746;52.228;20.890;2022-07-01T07:36:44;22.35;;;12.32;;
42084;SDS011;27746;52.228;20.890;2022-07-01T07:39:11;19.08;;;13.65;;
42084;SDS011;27746;52.228;20.890;2022-07-01T07:41:38;16.10;;;12.30;;
42084;SDS011;27746;52.228;20.890;2022-07-01T07:44:05;16.50;;;12.68;;
42084;SDS011;27746;52.228;20.890;2022-07-01T07:46:31;19.55;;;12.55;;
42084;SDS011;27746;52.228;20.890;2022-07-01T07:48:58;19.60;;;13.18;;
42084;SDS011;27746;52.228;20.890;2022-07-01T07:51:26;30.60;;;13.68;;
42084;SDS011;27746;52.228;20.890;2022-07-01T07:53:53;21.50;;;12.95;;
42084;SDS011;27746;52.228;20.890;2022-07-01T07:56:20;18.48;;;12.93;;
42084;SDS011;27746;52.228;20.890;2022-07-01T07:58:47;23.08;;;13.68;;
42084;SDS011;27746;52.228;20.890;2022-07-01T08:01:14;22.65;;;12.40;;
42084;SDS011;27746;52.228;20.890;2022-07-01T08:03:40;18.92;;;12.10;;
42084;SDS011;27746;52.228;20.890;2022-07-01T08:06:07;17.33;;;12.50;;
42084;SDS011;27746;52.228;20.890;2022-07-01T08:08:35;17.27;;;12.27;;
42084;SDS011;27746;52.228;20.890;2022-07-01T08:11:02;16.55;;;11.65;;
42084;SDS011;27746;52.228;20.890;2022-07-01T08:13:29;16.30;;;11.32;;
42084;SDS011;27746;52.228;20.890;2022-07-01T08:15:56;16.17;;;11.75;;
42084;SDS011;27746;52.228;20.890;2022-07-01T08:18:23;20.65;;;11.43;;
42084;SDS011;27746;52.228;20.890;2022-07-01T08:20:50;16.67;;;11.50;;
42084;SDS011;27746;52.228;20.890;2022-07-01T08:23:18;16.77;;;11.95;;
42084;SDS011;27746;52.228;20.890;2022-07-01T08:25:47;16.88;;;11.13;;
42084;SDS011;27746;52.228;20.890;2022-07-01T08:28:15;15.70;;;11.23;;
42084;SDS011;27746;52.228;20.890;2022-07-01T08:30:42;13.52;;;10.73;;
42084;SDS011;27746;52.228;20.890;2022-07-01T08:33:09;16.27;;;10.52;;
42084;SDS011;27746;52.228;20.890;2022-07-01T08:35:36;15.50;;;10.70;;
42084;SDS011;27746;52.228;20.890;2022-07-01T08:38:03;14.95;;;9.70;;
42084;SDS011;27746;52.228;20.890;2022-07-01T08:40:30;17.80;;;9.60;;
42084;SDS011;27746;52.228;20.890;2022-07-01T08:43:00;24.13;;;11.48;;
42084;SDS011;27746;52.228;20.890;2022-07-01T08:45:28;18.50;;;10.85;;
42084;SDS011;27746;52.228;20.890;2022-07-01T08:47:57;18.67;;;10.38;;
42084;SDS011;27746;52.228;20.890;2022-07-01T08:50:26;14.38;;;9.30;;
42084;SDS011;27746;52.228;20.890;2022-07-01T08:53:00;13.38;;;9.93;;
42084;SDS011;27746;52.228;20.890;2022-07-01T08:55:29;16.75;;;8.80;;
42084;SDS011;27746;52.228;20.890;2022-07-01T08:57:58;12.65;;;9.23;;
42084;SDS011;27746;52.228;20.890;2022-07-01T09:00:31;14.60;;;9.70;;
42084;SDS011;27746;52.228;20.890;2022-07-01T09:02:59;14.23;;;9.15;;
42084;SDS011;27746;52.228;20.890;2022-07-01T09:05:27;16.63;;;9.68;;
42084;SDS011;27746;52.228;20.890;2022-07-01T09:07:55;18.02;;;9.27;;
42084;SDS011;27746;52.228;20.890;2022-07-01T09:10:24;13.27;;;8.45;;
42084;SDS011;27746;52.228;20.890;2022-07-01T09:12:52;9.23;;;7.97;;
42084;SDS011;27746;52.228;20.890;2022-07-01T09:15:21;11.80;;;9.02;;
42084;SDS011;27746;52.228;20.890;2022-07-01T09:17:53;15.95;;;8.90;;
42084;SDS011;27746;52.228;20.890;2022-07-01T09:20:28;9.55;;;8.20;;
42084;SDS011;27746;52.228;20.890;2022-07-01T09:23:03;11.68;;;7.97;;
42084;SDS011;27746;52.228;20.890;2022-07-01T09:25:33;13.40;;;7.85;;
42084;SDS011;27746;52.228;20.890;2022-07-01T09:30:33;8.88;;;7.20;;
42084;SDS011;27746;52.228;20.890;2022-07-01T09:33:07;14.98;;;8.85;;
42084;SDS011;27746;52.228;20.890;2022-07-01T09:35:36;12.50;;;7.72;;
42084;SDS011;27746;52.228;20.890;2022-07-01T09:38:04;13.48;;;8.00;;
42084;SDS011;27746;52.228;20.890;2022-07-01T09:40:48;13.52;;;8.00;;
42084;SDS011;27746;52.228;20.890;2022-07-01T09:43:17;12.82;;;8.20;;
42084;SDS011;27746;52.228;20.890;2022-07-01T09:45:50;11.85;;;7.50;;
42084;SDS011;27746;52.228;20.890;2022-07-01T09:48:22;16.90;;;8.35;;
42084;SDS011;27746;52.228;20.890;2022-07-01T09:50:50;11.00;;;8.02;;
42084;SDS011;27746;52.228;20.890;2022-07-01T09:53:17;13.30;;;7.85;;
42084;SDS011;27746;52.228;20.890;2022-07-01T09:55:44;20.63;;;8.10;;
42084;SDS011;27746;52.228;20.890;2022-07-01T09:58:11;21.23;;;7.97;;
42084;SDS011;27746;52.228;20.890;2022-07-01T10:00:39;12.32;;;7.18;;
42084;SDS011;27746;52.228;20.890;2022-07-01T10:03:07;12.93;;;8.18;;
42084;SDS011;27746;52.228;20.890;2022-07-01T10:05:45;10.18;;;8.48;;
42084;SDS011;27746;52.228;20.890;2022-07-01T10:08:19;13.73;;;8.35;;
42084;SDS011;27746;52.228;20.890;2022-07-01T10:11:01;19.58;;;7.93;;
42084;SDS011;27746;52.228;20.890;2022-07-01T10:13:46;12.65;;;8.10;;
42084;SDS011;27746;52.228;20.890;2022-07-01T10:16:13;14.63;;;8.35;;
42084;SDS011;27746;52.228;20.890;2022-07-01T10:18:44;11.38;;;7.30;;
42084;SDS011;27746;52.228;20.890;2022-07-01T10:21:17;19.33;;;8.82;;
42084;SDS011;27746;52.228;20.890;2022-07-01T10:23:52;14.68;;;8.40;;
42084;SDS011;27746;52.228;20.890;2022-07-01T10:26:19;10.50;;;7.75;;
42084;SDS011;27746;52.228;20.890;2022-07-01T10:28:55;15.18;;;7.50;;
42084;SDS011;27746;52.228;20.890;2022-07-01T10:31:28;10.73;;;8.65;;
42084;SDS011;27746;52.228;20.890;2022-07-01T10:34:03;10.65;;;8.23;;
42084;SDS011;27746;52.228;20.890;2022-07-01T10:36:32;11.32;;;8.38;;
42084;SDS011;27746;52.228;20.890;2022-07-01T10:39:10;12.73;;;7.78;;
42084;SDS011;27746;52.228;20.890;2022-07-01T10:41:54;13.68;;;8.30;;
42084;SDS011;27746;52.228;20.890;2022-07-01T10:44:22;13.65;;;8.13;;
42084;SDS011;27746;52.228;20.890;2022-07-01T10:46:51;12.00;;;7.65;;
42084;SDS011;27746;52.228;20.890;2022-07-01T10:52:21;13.45;;;7.47;;
42084;SDS011;27746;52.228;20.890;2022-07-01T10:54:50;15.02;;;7.35;;
42084;SDS011;27746;52.228;20.890;2022-07-01T10:57:31;11.00;;;6.78;;
42084;SDS011;27746;52.228;20.890;2022-07-01T11:03:14;11.55;;;7.15;;
42084;SDS011;27746;52.228;20.890;2022-07-01T11:05:48;16.23;;;8.25;;
42084;SDS011;27746;52.228;20.890;2022-07-01T11:08:17;12.77;;;6.47;;
42084;SDS011;27746;52.228;20.890;2022-07-01T11:10:48;11.23;;;7.13;;
42084;SDS011;27746;52.228;20.890;2022-07-01T11:13:16;11.50;;;6.65;;
42084;SDS011;27746;52.228;20.890;2022-07-01T11:15:45;12.98;;;7.20;;
42084;SDS011;27746;52.228;20.890;2022-07-01T11:18:13;13.65;;;6.85;;
42084;SDS011;27746;52.228;20.890;2022-07-01T11:20:41;12.27;;;7.55;;
42084;SDS011;27746;52.228;20.890;2022-07-01T11:23:09;15.52;;;8.02;;
42084;SDS011;27746;52.228;20.890;2022-07-01T11:25:36;11.18;;;7.32;;
42084;SDS011;27746;52.228;20.890;2022-07-01T11:28:04;15.85;;;7.68;;
42084;SDS011;27746;52.228;20.890;2022-07-01T11:30:31;10.43;;;6.68;;
42084;SDS011;27746;52.228;20.890;2022-07-01T11:32:58;11.90;;;7.15;;
42084;SDS011;27746;52.228;20.890;2022-07-01T11:35:26;16.98;;;7.45;;
42084;SDS011;27746;52.228;20.890;2022-07-01T11:38:26;10.30;;;6.95;;
42084;SDS011;27746;52.228;20.890;2022-07-01T11:41:17;13.43;;;7.00;;
42084;SDS011;27746;52.228;20.890;2022-07-01T11:43:44;11.35;;;7.97;;
42084;SDS011;27746;52.228;20.890;2022-07-01T11:46:11;12.32;;;7.45;;
42084;SDS011;27746;52.228;20.890;2022-07-01T11:48:39;12.25;;;8.32;;
42084;SDS011;27746;52.228;20.890;2022-07-01T11:51:09;12.00;;;7.25;;
42084;SDS011;27746;52.228;20.890;2022-07-01T11:53:39;17.13;;;7.40;;
42084;SDS011;27746;52.228;20.890;2022-07-01T11:56:07;10.50;;;6.72;;
42084;SDS011;27746;52.228;20.890;2022-07-01T11:58:41;16.73;;;8.50;;
42084;SDS011;27746;52.228;20.890;2022-07-01T12:01:20;13.05;;;8.57;;
42084;SDS011;27746;52.228;20.890;2022-07-01T12:03:50;11.13;;;7.22;;
42084;SDS011;27746;52.228;20.890;2022-07-01T12:06:19;11.73;;;7.00;;
42084;SDS011;27746;52.228;20.890;2022-07-01T12:08:49;12.90;;;6.88;;
42084;SDS011;27746;52.228;20.890;2022-07-01T12:11:18;12.50;;;7.20;;
42084;SDS011;27746;52.228;20.890;2022-07-01T12:13:47;17.17;;;7.07;;
42084;SDS011;27746;52.228;20.890;2022-07-01T12:16:14;13.15;;;6.80;;
42084;SDS011;27746;52.228;20.890;2022-07-01T12:18:54;13.73;;;7.07;;
42084;SDS011;27746;52.228;20.890;2022-07-01T12:21:23;8.00;;;6.75;;
42084;SDS011;27746;52.228;20.890;2022-07-01T12:24:07;16.02;;;6.88;;
42084;SDS011;27746;52.228;20.890;2022-07-01T12:26:45;14.20;;;7.03;;
42084;SDS011;27746;52.228;20.890;2022-07-01T12:29:16;12.90;;;6.75;;
42084;SDS011;27746;52.228;20.890;2022-07-01T12:31:53;11.40;;;6.90;;
42084;SDS011;27746;52.228;20.890;2022-07-01T12:34:21;9.25;;;6.72;;
42084;SDS011;27746;52.228;20.890;2022-07-01T12:36:49;14.25;;;7.32;;
42084;SDS011;27746;52.228;20.890;2022-07-01T12:39:18;18.23;;;7.35;;
42084;SDS011;27746;52.228;20.890;2022-07-01T12:41:50;11.07;;;7.20;;
42084;SDS011;27746;52.228;20.890;2022-07-01T12:44:21;7.35;;;6.50;;
42084;SDS011;27746;52.228;20.890;2022-07-01T12:46:48;12.57;;;6.95;;
42084;SDS011;27746;52.228;20.890;2022-07-01T12:49:18;17.67;;;7.47;;
42084;SDS011;27746;52.228;20.890;2022-07-01T12:51:46;12.45;;;7.05;;
42084;SDS011;27746;52.228;20.890;2022-07-01T12:57:11;12.27;;;6.70;;
42084;SDS011;27746;52.228;20.890;2022-07-01T12:59:38;11.70;;;6.13;;
42084;SDS011;27746;52.228;20.890;2022-07-01T13:02:06;9.70;;;6.15;;
42084;SDS011;27746;52.228;20.890;2022-07-01T13:04:33;15.35;;;7.18;;
42084;SDS011;27746;52.228;20.890;2022-07-01T13:06:59;11.05;;;6.70;;
42084;SDS011;27746;52.228;20.890;2022-07-01T13:09:26;13.38;;;7.03;;
42084;SDS011;27746;52.228;20.890;2022-07-01T13:11:53;10.88;;;6.00;;
42084;SDS011;27746;52.228;20.890;2022-07-01T13:14:23;12.63;;;6.05;;
42084;SDS011;27746;52.228;20.890;2022-07-01T13:16:50;10.07;;;6.03;;
42084;SDS011;27746;52.228;20.890;2022-07-01T13:19:17;14.00;;;6.32;;
42084;SDS011;27746;52.228;20.890;2022-07-01T13:21:44;17.85;;;7.63;;
42084;SDS011;27746;52.228;20.890;2022-07-01T13:24:11;9.55;;;5.93;;
42084;SDS011;27746;52.228;20.890;2022-07-01T13:26:38;11.85;;;5.60;;
42084;SDS011;27746;52.228;20.890;2022-07-01T13:29:06;12.73;;;6.40;;
42084;SDS011;27746;52.228;20.890;2022-07-01T13:31:35;11.63;;;6.55;;
42084;SDS011;27746;52.228;20.890;2022-07-01T13:34:02;16.58;;;6.32;;
42084;SDS011;27746;52.228;20.890;2022-07-01T13:36:30;12.52;;;6.75;;
42084;SDS011;27746;52.228;20.890;2022-07-01T13:38:57;13.60;;;6.30;;
42084;SDS011;27746;52.228;20.890;2022-07-01T13:41:23;12.93;;;5.55;;
42084;SDS011;27746;52.228;20.890;2022-07-01T13:43:50;14.77;;;6.57;;
42084;SDS011;27746;52.228;20.890;2022-07-01T13:46:17;10.98;;;5.78;;
42084;SDS011;27746;52.228;20.890;2022-07-01T13:48:45;8.43;;;5.45;;
42084;SDS011;27746;52.228;20.890;2022-07-01T13:51:12;14.35;;;6.00;;
42084;SDS011;27746;52.228;20.890;2022-07-01T13:53:39;14.27;;;5.60;;
42084;SDS011;27746;52.228;20.890;2022-07-01T13:56:07;11.07;;;6.45;;
42084;SDS011;27746;52.228;20.890;2022-07-01T13:58:33;17.42;;;6.35;;
42084;SDS011;27746;52.228;20.890;2022-07-01T14:01:00;12.57;;;6.43;;
42084;SDS011;27746;52.228;20.890;2022-07-01T14:03:27;8.98;;;5.82;;
42084;SDS011;27746;52.228;20.890;2022-07-01T14:05:55;9.88;;;5.53;;
42084;SDS011;27746;52.228;20.890;2022-07-01T14:08:22;9.73;;;5.82;;
42084;SDS011;27746;52.228;20.890;2022-07-01T14:10:51;10.05;;;5.72;;
42084;SDS011;27746;52.228;20.890;2022-07-01T14:13:20;9.35;;;5.57;;
42084;SDS011;27746;52.228;20.890;2022-07-01T14:15:49;20.73;;;6.63;;
42084;SDS011;27746;52.228;20.890;2022-07-01T14:18:16;11.40;;;5.60;;
42084;SDS011;27746;52.228;20.890;2022-07-01T14:20:43;9.52;;;5.32;;
42084;SDS011;27746;52.228;20.890;2022-07-01T14:23:12;10.48;;;6.05;;
42084;SDS011;27746;52.228;20.890;2022-07-01T14:25:39;10.77;;;5.72;;
42084;SDS011;27746;52.228;20.890;2022-07-01T14:28:08;10.07;;;5.40;;
42084;SDS011;27746;52.228;20.890;2022-07-01T14:30:35;10.25;;;5.60;;
42084;SDS011;27746;52.228;20.890;2022-07-01T14:33:01;9.68;;;5.53;;
42084;SDS011;27746;52.228;20.890;2022-07-01T14:35:28;11.43;;;5.45;;
42084;SDS011;27746;52.228;20.890;2022-07-01T14:37:56;8.30;;;5.45;;